Data for 08/25/2008

Time Sea-Level Adjusted Pressure Absolute Pressure Temperature Relative Humidity Dew Point   
(mb) (inHg) (mb) (inHg) (C) (F) (%) (C) (F)
00:05 1015 29.97 844 24.92 20.4 68.7 26 0.2 32.3
00:10 1015 29.97 844 24.92 20.3 68.6 26 0.5 32.9
00:15 1015 29.97 844 24.92 20.2 68.4 26 0.1 32.2
00:20 1015 29.97 844 24.92 20.1 68.3 27 0.7 33.3
00:25 1015 29.97 844 24.92 19.8 67.7 26 0.1 32.2
00:30 1015 29.97 844 24.92 19.9 67.9 26 0.1 32.3
00:35 1015 29.97 844 24.92 20.2 68.4 26 0.2 32.4
00:40 1015 29.97 844 24.92 20.3 68.6 26 0.3 32.5
00:45 1015 29.97 844 24.92 20.4 68.7 26 0.6 33
00:50 1015 29.97 844 24.92 20 68.1 27 0.7 33.2
00:55 1015 29.97 844 24.92 19.7 67.5 26 -0.4 31.3
01:00 1015 29.97 844 24.92 20.1 68.3 25 -0.1 31.7
01:05 1015 29.97 844 24.92 20.1 68.3 25 -0.4 31.3
01:10 1015 29.97 844 24.92 20.5 68.8 26 0.6 33.1
01:15 1015 29.97 844 24.92 20.2 68.4 26 0.1 32.2
01:20 1015 29.97 844 24.92 20.2 68.4 28 1.1 33.9
01:25 1015 29.97 844 24.92 20.2 68.3 26 0 32
01:30 1015 29.97 844 24.92 20.1 68.2 25 -0.4 31.3
01:35 1015 29.97 844 24.92 20.1 68.2 26 0.1 32.2
01:40 1015 29.97 844 24.92 20 67.9 26 -0 32
01:45 1015 29.97 844 24.92 20 68 25 -0.2 31.6
01:50 1015 29.97 844 24.92 20.3 68.5 24 -0.6 30.9
01:55 1015 29.97 844 24.92 20.7 69.3 24 -0.5 31.1
02:00 1015 29.97 844 24.92 20.6 69 24 -0.4 31.3
02:05 1015 29.97 844 24.92 20.6 69 23 -0.9 30.4
02:10 1015 29.97 844 24.92 20.6 69 25 -0 32
02:15 1015 29.97 844 24.92 20.5 68.9 24 -0.5 31.1
02:20 1015 29.97 844 24.92 20.2 68.4 24 -0.6 30.9
02:25 1015 29.97 844 24.92 20 67.9 26 -0.1 31.9
02:30 1015 29.97 844 24.92 19.8 67.7 25 -0.4 31.2
02:35 1015 29.97 844 24.92 19.8 67.6 26 -0.3 31.5
02:40 1015 29.97 844 24.92 19.8 67.6 26 -0.2 31.7
02:45 1015 29.97 844 24.92 19.7 67.5 26 -0.1 31.8
02:50 1015 29.97 844 24.92 19.9 67.8 27 0.5 32.8
02:55 1015 29.97 844 24.92 19.6 67.4 26 -0.2 31.6
03:00 1015 29.97 844 24.92 20 68 26 0 32.1
03:05 1015 29.97 844 24.92 20.2 68.3 25 -0.3 31.5
03:10 1015 29.97 844 24.92 20.5 68.9 25 -0.1 31.8
03:15 1015 29.97 844 24.92 20.2 68.4 26 0.3 32.5
03:20 1015 29.97 844 24.92 19.8 67.6 27 0.4 32.7
03:25 1015 29.97 844 24.92 19.6 67.3 27 0.2 32.4
03:30 1015 29.97 844 24.92 19.2 66.6 29 1.1 33.9
03:35 1015 29.97 844 24.92 18.7 65.6 31 1.3 34.3
03:40 1015 29.97 844 24.92 18 64.4 33 1.6 34.8
03:45 1015 29.97 844 24.92 17.8 64.1 32 0.9 33.6
03:50 1015 29.97 844 24.92 17.9 64.1 32 1 33.9
03:55 1015 29.97 844 24.92 17.7 63.9 32 1.1 34
04:00 1015 29.97 844 24.92 18.4 65.1 28 -0.1 31.9
04:05 1015 29.97 844 24.92 19 66.1 29 0.7 33.2
04:10 1015 29.97 844 24.92 18.8 65.8 29 0.5 32.9
04:15 1014 29.94 844 24.92 18.5 65.3 30 0.9 33.5
04:20 1014 29.94 844 24.92 18.2 64.8 31 0.9 33.6
04:25 1014 29.94 844 24.92 18.2 64.7 31 0.9 33.7
04:30 1014 29.94 844 24.92 18 64.3 31 0.8 33.4
04:35 1014 29.94 844 24.92 18.2 64.8 30 0.3 32.5
04:40 1014 29.94 844 24.92 18.6 65.5 29 0.2 32.4
04:45 1014 29.94 844 24.92 18.9 66 27 -0.2 31.7
04:50 1014 29.94 844 24.92 19.3 66.7 27 0 32.1
04:55 1014 29.94 844 24.92 19.1 66.5 28 0.4 32.7
05:00 1014 29.94 844 24.92 18.8 65.9 29 0.5 32.9
05:05 1014 29.94 844 24.92 18.7 65.7 28 0 32.1
05:10 1014 29.94 844 24.92 18.9 65.9 29 0.6 33.1
05:15 1014 29.94 844 24.92 18.6 65.6 29 0.6 33.1
05:20 1014 29.94 844 24.92 18.6 65.5 30 0.6 33.1
05:25 1014 29.94 844 24.92 18.8 65.8 28 0.2 32.3
05:30 1014 29.94 844 24.92 18.9 66.1 29 0.4 32.8
05:35 1014 29.94 844 24.92 18.9 66 29 0.7 33.3
05:40 1014 29.94 844 24.92 18.6 65.5 29 0.5 32.9
05:45 1014 29.94 844 24.92 18.4 65.2 30 0.9 33.5
05:50 1014 29.94 844 24.92 18.6 65.4 29 0.3 32.5
05:55 1014 29.94 844 24.92 18.6 65.4 29 0.5 33
06:00 1014 29.94 844 24.92 18.7 65.7 29 0.3 32.5
06:05 1014 29.94 844 24.92 18.8 65.8 29 0.5 32.8
06:10 1014 29.94 844 24.92 18.6 65.5 29 0.5 32.9
06:15 1014 29.94 844 24.92 18.4 65.1 30 0.7 33.3
06:20 1014 29.94 844 24.92 18.2 64.7 33 1.6 34.9
06:25 1014 29.94 844 24.92 17.8 64.1 33 1.4 34.6
06:30 1014 29.94 844 24.92 17.8 64.1 33 1.3 34.4
06:35 1014 29.94 844 24.92 17.7 63.9 32 0.9 33.7
06:40 1014 29.94 844 24.92 17.8 64 32 1.1 34
06:45 1014 29.94 844 24.92 17.7 63.9 32 0.9 33.5
06:50 1014 29.94 844 24.92 17.7 63.8 32 0.9 33.6
06:55 1014 29.94 843 24.89 17.9 64.1 32 1 33.8
07:00 1014 29.94 843 24.89 17.9 64.2 31 0.7 33.2
07:05 1014 29.94 843 24.89 18 64.4 31 0.9 33.7
07:10 1014 29.94 843 24.89 18.2 64.8 30 0.6 33
07:15 1014 29.94 843 24.89 18.4 65.1 31 1.1 34
07:20 1014 29.94 843 24.89 18.3 65 31 0.9 33.6
07:25 1014 29.94 843 24.89 18.4 65.2 31 0.9 33.7
07:30 1014 29.94 843 24.89 18.8 65.8 30 0.9 33.6
07:35 1014 29.94 843 24.89 19.2 66.6 29 0.8 33.5
07:40 1014 29.94 843 24.89 19.4 66.9 29 1.1 34
07:45 1014 29.94 843 24.89 19.6 67.3 29 1.2 34.1
07:50 1014 29.94 843 24.89 19.8 67.6 28 1 33.8
07:55 1014 29.94 843 24.89 20 68 28 1.3 34.3
08:00 1014 29.94 843 24.89 20.1 68.2 28 1.3 34.3
08:05 1014 29.94 843 24.89 20.2 68.4 27 0.7 33.3
08:10 1014 29.94 843 24.89 20.9 69.5 25 0.5 32.9
08:15 1014 29.94 843 24.89 21.6 70.8 25 1.1 34.1
08:20 1014 29.94 843 24.89 21.9 71.4 26 1.9 35.5
08:25 1014 29.94 843 24.89 22.1 71.7 25 1.4 34.6
08:30 1014 29.94 843 24.89 22.3 72.1 25 1.8 35.2
08:35 1014 29.94 843 24.89 22.3 72.2 26 1.9 35.4
08:40 1014 29.94 843 24.89 22.2 71.9 27 2.5 36.6
08:45 1014 29.94 843 24.89 22.3 72.1 28 3.2 37.7
08:50 1014 29.94 843 24.89 22.5 72.5 28 3.3 37.9
08:55 1014 29.94 843 24.89 22.6 72.7 28 3.2 37.7
09:00 1014 29.94 843 24.89 23.1 73.5 27 3.3 38
09:05 1014 29.94 843 24.89 23.4 74.2 28 4 39.2
09:10 1014 29.94 843 24.89 23.7 74.6 29 4.8 40.7
09:15 1014 29.94 843 24.89 24.8 76.6 27 5 41
09:20 1014 29.94 843 24.89 25 77 32 7.2 45
09:25 1014 29.94 843 24.89 24.7 76.4 29 5.6 42
09:30 1014 29.94 843 24.89 25 76.9 28 5.3 41.5
09:35 1014 29.94 843 24.89 25 77 31 6.8 44.2
09:40 1014 29.94 843 24.89 24.1 75.5 31 6.2 43.1
09:45 1014 29.94 843 24.89 23.9 74.9 30 5.5 41.9
09:50 1014 29.94 843 24.89 24.7 76.5 29 5.5 41.9
09:55 1013 29.91 843 24.89 25.1 77.2 28 5.5 41.9
10:00 1013 29.91 843 24.89 25.2 77.4 28 5.7 42.3
10:05 1013 29.91 843 24.89 26 78.8 27 5.8 42.5
10:10 1013 29.91 843 24.89 26.8 80.3 26 5.9 42.6
10:15 1013 29.91 842 24.86 27.3 81.1 26 6.2 43.2
10:20 1013 29.91 842 24.86 28.1 82.6 26 7 44.6
10:25 1013 29.91 842 24.86 28.7 83.7 26 7.7 45.8
10:30 1013 29.91 842 24.86 28.7 83.6 26 7.6 45.7
10:35 1013 29.91 842 24.86 28.4 83.1 25 7 44.7
10:40 1013 29.91 842 24.86 28.7 83.6 21 4.8 40.6
10:45 1013 29.91 842 24.86 30.1 86.1 21 5.8 42.4
10:50 1013 29.91 842 24.86 30.9 87.6 21 6.2 43.2
10:55 1013 29.91 842 24.86 31 87.7 18 4.3 39.8
11:00 1013 29.91 842 24.86 31.8 89.2 16 2.9 37.2
11:05 1013 29.91 842 24.86 32.5 90.5 17 4.6 40.2
11:10 1013 29.91 842 24.86 32.6 90.7 15 3.4 38.1
11:15 1013 29.91 842 24.86 32.2 90 13 0.7 33.2
11:20 1013 29.91 842 24.86 32.6 90.7 12 0.1 32.2
11:25 1013 29.91 842 24.86 33 91.4 14 2.9 37.2
11:30 1013 29.91 842 24.86 33.2 91.8 12 0.5 32.9
11:35 1013 29.91 842 24.86 32.3 90.2 12 -0.5 31.1
11:40 1013 29.91 842 24.86 32.1 89.7 12 -0.8 30.6
11:45 1013 29.91 842 24.86 32.2 89.9 12 -0.1 31.7
11:50 1013 29.91 842 24.86 32.2 89.9 12 -0 31.9
11:55 1013 29.91 842 24.86 32.2 90 12 -0.9 30.3
12:00 1013 29.91 842 24.86 32.4 90.4 12 -0.8 30.6
12:05 1013 29.91 842 24.86 32.5 90.5 14 2 35.5
12:10 1013 29.91 842 24.86 32.5 90.5 17 4.5 40.2
12:15 1013 29.91 842 24.86 31.9 89.5 15 2.2 36
12:20 1013 29.91 842 24.86 32.2 90 15 3 37.4
12:25 1012 29.88 842 24.86 32.8 91.1 15 3.4 38.1
12:30 1012 29.88 842 24.86 32.8 91 15 3 37.4
12:35 1012 29.88 842 24.86 33.3 92 14 2.8 37
12:40 1012 29.88 842 24.86 33.6 92.4 13 2 35.5
12:45 1012 29.88 841 24.83 32.8 91 16 3.7 38.7
12:50 1012 29.88 841 24.83 32.5 90.5 14 2 35.6
12:55 1012 29.88 841 24.83 32.8 91.1 13 0.9 33.7
13:00 1012 29.88 841 24.83 33.5 92.4 13 2 35.7
13:05 1012 29.88 841 24.83 33.8 92.9 14 2.6 36.7
13:10 1012 29.88 841 24.83 33.2 91.8 12 0.3 32.6
13:15 1012 29.88 841 24.83 34.4 93.9 12 1.5 34.7
13:20 1012 29.88 841 24.83 33.7 92.7 11 -0.6 30.9
13:25 1012 29.88 841 24.83 33.9 93 10 -1.7 29
13:30 1011 29.85 841 24.83 33.8 92.8 11 -0.6 30.9
13:35 1011 29.85 841 24.83 33.5 92.3 9 -2.7 27.1
13:40 1011 29.85 841 24.83 33.3 92 10 -2.4 27.7
13:45 1011 29.85 840 24.81 33.1 91.6 11 -1.3 29.6
13:50 1011 29.85 840 24.81 33.1 91.7 11 -1.3 29.7
13:55 1011 29.85 840 24.81 33.1 91.5 10 -2.3 27.8
14:00 1011 29.85 840 24.81 33.4 92.2 10 -1.9 28.5
14:05 1011 29.85 840 24.81 34 93.2 10 -0.9 30.4
14:10 1011 29.85 840 24.81 33.8 92.9 10 -2 28.4
14:15 1011 29.85 840 24.81 33.5 92.3 10 -1.6 29.1
14:20 1011 29.85 840 24.81 33.4 92.1 10 -2.7 27.2
14:25 1011 29.85 840 24.81 33.8 92.9 9 -3.3 26.1
14:30 1011 29.85 840 24.81 33.9 93 10 -1.7 28.9
14:35 1011 29.85 840 24.81 34.1 93.3 10 -1.3 29.7
14:40 1011 29.85 840 24.81 33.9 92.9 10 -2 28.3
14:45 1011 29.85 840 24.81 33.6 92.5 10 -1.4 29.5
14:50 1011 29.85 840 24.81 33.3 92 11 -0.7 30.7
14:55 1011 29.85 840 24.81 33.7 92.7 11 -1 30.1
15:00 1010 29.83 840 24.81 33.8 92.8 10 -1.1 30.1
15:05 1010 29.83 840 24.81 34 93.3 10 -0.9 30.4
15:10 1010 29.83 839 24.78 33.8 92.8 10 -1.4 29.5
15:15 1010 29.83 839 24.78 33.5 92.3 10 -1.8 28.8
15:20 1010 29.83 839 24.78 33.3 91.9 11 -0.6 31
15:25 1010 29.83 839 24.78 32.7 90.8 10 -2.8 27
15:30 1010 29.83 839 24.78 32.8 91 10 -2.1 28.3
15:35 1010 29.83 839 24.78 33.2 91.8 10 -2.4 27.7
15:40 1010 29.83 839 24.78 33.5 92.2 10 -2.1 28.2
15:45 1010 29.83 839 24.78 33.4 92.1 10 -1.8 28.7
15:50 1010 29.83 839 24.78 33.2 91.8 11 -1.3 29.7
15:55 1010 29.83 839 24.78 33.4 92 9 -2.8 27
16:00 1010 29.83 839 24.78 33.2 91.7 10 -2.2 28.1
16:05 1010 29.83 839 24.78 33.1 91.6 10 -2.1 28.2
16:10 1010 29.83 839 24.78 32.9 91.2 10 -2.8 27
16:15 1010 29.83 839 24.78 33.1 91.5 10 -2.5 27.6
16:20 1009 29.8 839 24.78 33.4 92 10 -1.4 29.6
16:25 1009 29.8 839 24.78 33.4 92.1 10 -1.9 28.6
16:30 1009 29.8 839 24.78 33.3 92 10 -1.9 28.6
16:35 1009 29.8 839 24.78 33.2 91.8 10 -2.7 27.1
16:40 1009 29.8 839 24.78 33.2 91.7 10 -2.2 28
16:45 1009 29.8 838 24.75 33.3 91.9 10 -2.2 28
16:50 1009 29.8 838 24.75 33.3 91.9 12 -0.1 31.8
16:55 1009 29.8 838 24.75 33 91.4 11 -1.1 30
17:00 1009 29.8 838 24.75 32.8 91.1 10 -2.3 27.8
17:05 1009 29.8 838 24.75 32.8 91 10 -2.3 27.9
17:10 1009 29.8 838 24.75 32.7 90.9 10 -2.3 27.8
17:15 1009 29.8 838 24.75 32.8 91.1 10 -2.3 27.9
17:20 1009 29.8 838 24.75 32.6 90.7 10 -2.3 27.9
17:25 1009 29.8 838 24.75 32.6 90.7 10 -2.9 26.7
17:30 1009 29.8 838 24.75 32.6 90.8 10 -3.1 26.4
17:35 1009 29.8 838 24.75 32.4 90.3 12 -0.7 30.7
17:40 1009 29.8 838 24.75 31.2 88.1 12 -0.8 30.6
17:45 1009 29.8 838 24.75 30.6 87.2 12 -1.4 29.5
17:50 1009 29.8 838 24.75 31.2 88.1 12 -1.6 29.1
17:55 1009 29.8 838 24.75 31.1 88 12 -1.7 29
18:00 1009 29.8 838 24.75 30.9 87.7 11 -2 28.3
18:05 1009 29.8 838 24.75 31.1 88 11 -2 28.5
18:10 1009 29.8 838 24.75 30.8 87.4 11 -2.2 28
18:15 1009 29.8 838 24.75 30.7 87.3 12 -1.7 28.9
18:20 1009 29.8 838 24.75 30.7 87.2 12 -1.7 29
18:25 1009 29.8 838 24.75 30.3 86.5 13 -0.6 30.9
18:30 1008 29.77 838 24.75 29.7 85.5 13 -1 30.2
18:35 1008 29.77 838 24.75 29.7 85.4 13 -1.4 29.6
18:40 1008 29.77 838 24.75 30 85.9 13 -1.2 29.8
18:45 1008 29.77 838 24.75 30.2 86.4 12 -1.5 29.4
18:50 1008 29.77 837 24.72 30.8 87.4 12 -1.5 29.2
18:55 1008 29.77 837 24.72 30.7 87.2 12 -2.1 28.3
19:00 1008 29.77 837 24.72 30.6 87.1 12 -2.1 28.2
19:05 1008 29.77 837 24.72 30.5 86.8 12 -1.8 28.8
19:10 1008 29.77 837 24.72 30.4 86.6 12 -2.3 27.9
19:15 1008 29.77 837 24.72 30.4 86.7 12 -1.9 28.5
19:20 1008 29.77 837 24.72 30.4 86.7 12 -2.1 28.3
19:25 1008 29.77 837 24.72 30.3 86.6 13 -1.3 29.6
19:30 1008 29.77 837 24.72 30 85.9 13 -1.6 29.1
19:35 1008 29.77 837 24.72 30 85.9 12 -1.9 28.6
19:40 1008 29.77 837 24.72 30 86 12 -2 28.4
19:45 1008 29.77 837 24.72 29.9 85.8 12 -2.6 27.4
19:50 1008 29.77 837 24.72 30.1 86.2 11 -2.7 27.2
19:55 1008 29.77 837 24.72 30.1 86.1 11 -3.3 26
20:00 1008 29.77 837 24.72 30.3 86.5 11 -3.3 26.1
20:05 1008 29.77 837 24.72 30.2 86.3 11 -2.7 27.1
20:10 1008 29.77 837 24.72 29.8 85.6 12 -2.7 27.2
20:15 1008 29.77 837 24.72 29.6 85.2 11 -3.2 26.3
20:20 1008 29.77 837 24.72 29.8 85.6 11 -2.9 26.7
20:25 1008 29.77 837 24.72 29.8 85.6 11 -3.3 26
20:30 1008 29.77 837 24.72 29.7 85.4 12 -2.8 26.9
20:35 1008 29.77 837 24.72 29.4 84.9 11 -3.3 26.1
20:40 1008 29.77 837 24.72 29.1 84.4 13 -1.8 28.7
20:45 1008 29.77 837 24.72 28.9 83.9 12 -3.2 26.3
20:50 1008 29.77 837 24.72 28.8 83.9 12 -3 26.5
20:55 1008 29.77 837 24.72 28.7 83.6 12 -3.1 26.5
21:00 1008 29.77 837 24.72 28.5 83.2 12 -3 26.6
21:05 1008 29.77 837 24.72 28.4 83.1 12 -3.3 26
21:10 1008 29.77 837 24.72 28.3 83 12 -3.7 25.3
21:15 1008 29.77 837 24.72 28.6 83.4 12 -3.2 26.2
21:20 1008 29.77 837 24.72 28.6 83.4 12 -3.5 25.6
21:25 1008 29.77 837 24.72 28.5 83.4 12 -3.6 25.5
21:30 1008 29.77 837 24.72 28.4 83.1 12 -3.3 26
21:35 1008 29.77 837 24.72 28.4 83.1 12 -3.5 25.7
21:40 1008 29.77 837 24.72 28.2 82.8 12 -3.2 26.3
21:45 1008 29.77 837 24.72 28.2 82.8 12 -3.6 25.5
21:50 1008 29.77 837 24.72 28.3 83 12 -3.4 25.9
21:55 1008 29.77 837 24.72 28.2 82.7 12 -3.5 25.7
22:00 1008 29.77 837 24.72 28.1 82.5 12 -3.4 26
22:05 1008 29.77 837 24.72 28.1 82.5 12 -3.3 26
22:10 1008 29.77 837 24.72 28.2 82.7 12 -3.8 25.2
22:15 1008 29.77 837 24.72 28.4 83.2 13 -2.7 27.1
22:20 1008 29.77 837 24.72 28.1 82.6 12 -3.3 26.1
22:25 1008 29.77 837 24.72 28 82.4 13 -3.2 26.3
22:30 1008 29.77 837 24.72 28 82.4 12 -3.2 26.2
22:35 1008 29.77 837 24.72 27.9 82.2 13 -2.8 27
22:40 1007 29.74 837 24.72 27.8 82 13 -3.1 26.4
22:45 1007 29.74 837 24.72 27.7 81.8 13 -2.9 26.7
22:50 1007 29.74 837 24.72 27.3 81.1 13 -2.9 26.9
22:55 1007 29.74 836 24.69 27.3 81.2 13 -3.3 26
23:00 1007 29.74 836 24.69 27.5 81.5 13 -2.8 27
23:05 1007 29.74 836 24.69 27.5 81.5 13 -2.8 26.9
23:10 1007 29.74 836 24.69 27.9 82.2 13 -2.9 26.8
23:15 1007 29.74 836 24.69 27.8 82 13 -2.9 26.8
23:20 1007 29.74 836 24.69 27.8 82 14 -2.1 28.3
23:25 1007 29.74 836 24.69 27.4 81.3 14 -2.2 28
23:30 1007 29.74 836 24.69 27.2 81 13 -3.6 25.5
23:35 1007 29.74 836 24.69 27.8 82.1 13 -2.3 27.8
23:40 1007 29.74 836 24.69 27.1 80.8 14 -2.1 28.2
23:45 1007 29.74 836 24.69 26.8 80.2 14 -2.4 27.8
23:50 1007 29.74 836 24.69 26.6 79.8 15 -2.3 27.9
23:55 1007 29.74 836 24.69 26.2 79.2 15 -2.2 28
24:00 1007 29.74 836 24.69 25.8 78.5 15 -2.5 27.5